Time;durP1;ratioP1;P1;durP2;ratioP2;P2;SDS_P1;SDS_P2;PMS_P1;PMS_P2;Temp;Humidity;BMP_temperature;BMP_pressure;BME280_temperature;BME280_humidity;BME280_pressure;Samples;Min_cycle;Max_cycle;Signal;HPM_P1;HPM_P2
2023/12/12 00:00:21;;;;;;;7.47;2.45;;;19.60;63.40;;;;;;5051279;28;20055;-62
2023/12/12 00:02:47;;;;;;;6.05;2.83;;;19.60;63.50;;;;;;5052540;28;20408;-62
2023/12/12 00:05:13;;;;;;;4.53;2.28;;;19.60;63.50;;;;;;5053584;28;20025;-62
2023/12/12 00:07:39;;;;;;;4.07;2.38;;;19.60;63.40;;;;;;5051578;28;20508;-62
2023/12/12 00:10:06;;;;;;;5.43;2.13;;;19.60;63.40;;;;;;5051901;28;20439;-62
2023/12/12 00:12:31;;;;;;;4.43;2.22;;;19.60;63.30;;;;;;5052193;28;20080;-62
2023/12/12 00:14:57;;;;;;;4.15;2.30;;;19.60;63.40;;;;;;5055225;28;20064;-62
2023/12/12 00:17:24;;;;;;;5.50;2.17;;;19.60;63.20;;;;;;5072247;28;20491;-62
2023/12/12 00:19:50;;;;;;;3.55;1.85;;;19.60;63.20;;;;;;5072237;28;20115;-62
2023/12/12 00:22:15;;;;;;;5.60;2.33;;;19.50;63.10;;;;;;5069871;28;20572;-62
2023/12/12 00:24:41;;;;;;;6.18;2.30;;;19.60;63.30;;;;;;5053048;28;20052;-62
2023/12/12 00:27:07;;;;;;;4.88;2.40;;;19.60;63.50;;;;;;5052234;28;20082;-62
2023/12/12 00:29:35;;;;;;;5.75;2.40;;;19.60;63.20;;;;;;5051414;28;20033;-62
2023/12/12 00:32:02;;;;;;;4.60;2.20;;;19.60;63.80;;;;;;5047697;28;20025;-62
2023/12/12 00:34:28;;;;;;;5.10;2.25;;;19.60;63.20;;;;;;5105420;22;20044;-55
2023/12/12 00:36:54;;;;;;;4.45;2.17;;;19.60;63.80;;;;;;5091341;28;20119;-55
2023/12/12 00:39:20;;;;;;;4.18;2.03;;;19.50;63.20;;;;;;5091669;28;20115;-58
2023/12/12 00:41:46;;;;;;;4.32;2.00;;;19.50;63.50;;;;;;5085578;28;20036;-58
2023/12/12 00:44:12;;;;;;;6.57;2.10;;;19.60;63.40;;;;;;5091826;28;20028;-56
2023/12/12 00:46:38;;;;;;;7.00;2.30;;;19.60;63.50;;;;;;5084981;28;20110;-57
2023/12/12 00:49:03;;;;;;;3.10;1.88;;;19.60;63.20;;;;;;5092026;28;20088;-58
2023/12/12 00:51:29;;;;;;;3.55;2.10;;;19.60;63.30;;;;;;5088313;28;20039;-55
2023/12/12 00:53:55;;;;;;;3.58;1.88;;;19.50;63.30;;;;;;5090965;28;20028;-57
2023/12/12 00:56:21;;;;;;;4.28;2.47;;;19.60;63.50;;;;;;5089095;28;20024;-57
2023/12/12 00:58:46;;;;;;;11.43;2.03;;;19.50;63.40;;;;;;5089637;28;20494;-55
2023/12/12 01:01:13;;;;;;;4.60;2.10;;;19.50;63.60;;;;;;5091798;28;20031;-53
2023/12/12 01:03:39;;;;;;;5.32;2.28;;;19.50;63.30;;;;;;5083297;28;20036;-55
2023/12/12 01:06:06;;;;;;;5.45;2.00;;;19.50;63.40;;;;;;5092120;28;20437;-57
2023/12/12 01:08:32;;;;;;;4.07;2.00;;;19.60;63.30;;;;;;5091511;28;20086;-57
2023/12/12 01:10:58;;;;;;;4.78;2.30;;;19.50;63.20;;;;;;5091884;28;20126;-58
2023/12/12 01:13:24;;;;;;;3.22;1.92;;;19.60;63.20;;;;;;5085970;28;20066;-58
2023/12/12 01:15:49;;;;;;;3.30;1.60;;;19.50;63.10;;;;;;5086424;28;20044;-56
2023/12/12 01:18:15;;;;;;;4.25;1.92;;;19.60;63.10;;;;;;5082297;28;20113;-58
2023/12/12 01:20:41;;;;;;;3.70;1.85;;;19.60;63.30;;;;;;5081796;28;20530;-57
2023/12/12 01:23:07;;;;;;;5.80;2.20;;;19.50;62.90;;;;;;5086921;28;20024;-58
2023/12/12 01:25:32;;;;;;;5.85;1.90;;;19.50;63.00;;;;;;5091841;28;20032;-57
2023/12/12 01:27:59;;;;;;;4.25;1.88;;;19.50;62.90;;;;;;5091292;28;20378;-57
2023/12/12 01:30:24;;;;;;;4.07;2.10;;;19.50;63.40;;;;;;5089726;28;20081;-55
2023/12/12 01:32:50;;;;;;;3.38;2.03;;;19.60;62.80;;;;;;5086530;28;20020;-57
2023/12/12 01:35:16;;;;;;;3.92;2.22;;;19.50;62.80;;;;;;5090938;28;20023;-57
2023/12/12 01:37:42;;;;;;;4.40;1.90;;;19.50;62.80;;;;;;5091002;28;20555;-55
2023/12/12 01:40:08;;;;;;;4.07;2.00;;;19.50;62.80;;;;;;5088491;28;20032;-56
2023/12/12 01:42:34;;;;;;;7.55;2.08;;;19.50;63.10;;;;;;5083545;28;20028;-56
2023/12/12 01:45:00;;;;;;;12.13;2.03;;;19.60;63.40;;;;;;5083021;28;20034;-55
2023/12/12 01:47:27;;;;;;;11.00;1.90;;;19.60;63.80;;;;;;5087230;28;20020;-57
2023/12/12 01:49:53;;;;;;;12.18;2.08;;;19.60;63.30;;;;;;5089710;28;20399;-55
2023/12/12 01:52:21;;;;;;;11.05;2.13;;;19.50;64.60;;;;;;5075847;28;20021;-58
2023/12/12 01:54:49;;;;;;;7.13;1.90;;;19.50;64.30;;;;;;5088805;28;20016;-57
2023/12/12 01:57:17;;;;;;;5.03;2.20;;;19.50;63.90;;;;;;5090839;28;20498;-55
2023/12/12 01:59:45;;;;;;;9.25;2.17;;;19.50;63.90;;;;;;5091003;28;20039;-58
2023/12/12 02:02:18;;;;;;;7.93;2.22;;;19.50;64.20;;;;;;5088717;28;20032;-57
2023/12/12 02:04:46;;;;;;;5.38;2.05;;;19.50;64.10;;;;;;5083682;28;20391;-57
2023/12/12 02:07:13;;;;;;;3.50;1.58;;;19.50;63.60;;;;;;5090710;28;20024;-56
2023/12/12 02:09:39;;;;;;;2.53;1.50;;;19.50;63.90;;;;;;5085811;28;20025;-56
2023/12/12 02:12:05;;;;;;;3.25;1.60;;;19.50;64.30;;;;;;5084101;28;20016;-58
2023/12/12 02:14:33;;;;;;;6.57;2.10;;;19.50;64.10;;;;;;5085818;28;20020;-57
2023/12/12 02:16:59;;;;;;;5.35;2.00;;;19.50;63.80;;;;;;5088897;28;20047;-56
2023/12/12 02:19:24;;;;;;;6.85;2.17;;;19.50;63.40;;;;;;5083826;28;20024;-55
2023/12/12 02:21:50;;;;;;;7.10;1.90;;;19.50;64.20;;;;;;5087640;28;20054;-57
2023/12/12 02:24:16;;;;;;;5.47;1.80;;;19.50;64.90;;;;;;5077961;28;20053;-55
2023/12/12 02:26:42;;;;;;;9.35;1.70;;;19.50;64.00;;;;;;5090313;28;20032;-54
2023/12/12 02:29:08;;;;;;;6.38;1.85;;;19.50;64.40;;;;;;5090603;28;20052;-58
2023/12/12 02:31:34;;;;;;;5.22;2.10;;;19.50;63.50;;;;;;5094253;28;20020;-55
2023/12/12 02:34:00;;;;;;;3.83;1.90;;;19.40;64.30;;;;;;5084750;28;20098;-56
2023/12/12 02:36:26;;;;;;;4.20;1.67;;;19.50;63.70;;;;;;5093318;28;20503;-57
2023/12/12 02:38:51;;;;;;;3.30;1.80;;;19.50;64.00;;;;;;5093046;28;20024;-54
2023/12/12 02:41:18;;;;;;;2.97;1.95;;;19.50;63.60;;;;;;5093825;28;20634;-58
2023/12/12 02:43:44;;;;;;;2.45;1.63;;;19.50;63.60;;;;;;5091389;28;20021;-57
2023/12/12 02:46:09;;;;;;;2.20;1.52;;;19.40;63.80;;;;;;5088429;28;20023;-56
2023/12/12 02:48:35;;;;;;;4.18;1.92;;;19.50;63.80;;;;;;5090892;28;20153;-59
2023/12/12 02:51:01;;;;;;;5.18;1.70;;;19.50;64.10;;;;;;5092316;28;20466;-57
2023/12/12 02:53:27;;;;;;;7.30;2.25;;;19.40;63.90;;;;;;5093445;28;20026;-57
2023/12/12 02:55:52;;;;;;;2.25;1.70;;;19.40;63.70;;;;;;5094537;28;20012;-56
2023/12/12 02:58:18;;;;;;;3.40;1.60;;;19.40;65.10;;;;;;5094071;28;20028;-57
2023/12/12 03:00:44;;;;;;;4.05;1.67;;;19.50;63.90;;;;;;5093835;28;20031;-58
2023/12/12 03:03:09;;;;;;;5.28;1.83;;;19.40;64.20;;;;;;5093773;28;20054;-56
2023/12/12 03:05:35;;;;;;;6.28;1.80;;;19.50;64.40;;;;;;5094050;28;20035;-58
2023/12/12 03:08:01;;;;;;;2.47;1.70;;;19.40;64.90;;;;;;5090950;28;20092;-56
2023/12/12 03:10:27;;;;;;;4.30;1.65;;;19.40;63.80;;;;;;5093478;28;20027;-58
2023/12/12 03:12:52;;;;;;;2.15;1.60;;;19.50;63.40;;;;;;5090341;28;20055;-58
2023/12/12 03:15:18;;;;;;;4.88;2.08;;;19.50;64.00;;;;;;5093637;28;20074;-55
2023/12/12 03:17:44;;;;;;;3.47;1.60;;;19.50;63.20;;;;;;5093049;28;20092;-56
2023/12/12 03:20:10;;;;;;;4.35;1.70;;;19.50;64.00;;;;;;5093987;28;20016;-57
2023/12/12 03:22:35;;;;;;;3.60;1.80;;;19.50;64.30;;;;;;5093833;28;20473;-58
2023/12/12 03:25:01;;;;;;;2.40;1.55;;;19.40;64.10;;;;;;5093613;28;20032;-58
2023/12/12 03:27:27;;;;;;;3.15;1.63;;;19.50;64.00;;;;;;5094157;28;20026;-53
2023/12/12 03:29:52;;;;;;;2.88;1.75;;;19.50;63.30;;;;;;5093013;28;20056;-57
2023/12/12 03:32:18;;;;;;;2.05;1.75;;;19.50;63.70;;;;;;5092784;28;20024;-58
2023/12/12 03:34:44;;;;;;;7.70;1.90;;;19.40;62.90;;;;;;5087945;28;20047;-58
2023/12/12 03:37:10;;;;;;;3.05;2.03;;;19.50;63.00;;;;;;5093318;28;20028;-53
2023/12/12 03:39:37;;;;;;;3.95;2.00;;;19.50;62.90;;;;;;5092369;28;20282;-54
2023/12/12 03:42:03;;;;;;;13.30;1.80;;;19.50;63.80;;;;;;5085003;28;20035;-57
2023/12/12 03:44:29;;;;;;;6.47;1.70;;;19.50;63.50;;;;;;5091891;28;20107;-58
2023/12/12 03:46:55;;;;;;;2.67;1.55;;;19.50;63.70;;;;;;5092453;28;20099;-56
2023/12/12 03:49:21;;;;;;;3.05;1.80;;;19.50;63.50;;;;;;5092019;28;20017;-57
2023/12/12 03:51:46;;;;;;;2.65;1.80;;;19.50;63.50;;;;;;5092816;28;20028;-56
2023/12/12 03:54:12;;;;;;;8.57;1.65;;;19.50;63.50;;;;;;5092819;28;20032;-57
2023/12/12 03:56:38;;;;;;;3.17;1.42;;;19.50;63.50;;;;;;5093331;28;20024;-57
2023/12/12 03:59:04;;;;;;;2.58;1.50;;;19.50;63.60;;;;;;5091950;28;20097;-55
2023/12/12 04:01:31;;;;;;;4.28;1.65;;;19.50;63.00;;;;;;5092173;28;20174;-57
2023/12/12 04:03:57;;;;;;;2.90;1.70;;;19.50;63.80;;;;;;5092683;28;20085;-54
2023/12/12 04:06:23;;;;;;;3.58;1.73;;;19.50;63.70;;;;;;5092825;28;20028;-56
2023/12/12 04:08:49;;;;;;;3.72;1.60;;;19.40;63.50;;;;;;5087211;28;20027;-55
2023/12/12 04:11:15;;;;;;;2.90;1.48;;;19.40;63.70;;;;;;5091919;28;20016;-58
2023/12/12 04:13:41;;;;;;;5.18;1.70;;;19.40;63.90;;;;;;5092882;28;20020;-56
2023/12/12 04:16:07;;;;;;;3.47;1.73;;;19.40;63.60;;;;;;5092501;28;20044;-57
2023/12/12 04:18:33;;;;;;;6.25;1.70;;;19.40;63.90;;;;;;5090927;28;20418;-58
2023/12/12 04:20:59;;;;;;;5.43;2.00;;;19.40;63.60;;;;;;5092023;28;20039;-58
2023/12/12 04:23:24;;;;;;;4.53;1.63;;;19.40;63.80;;;;;;5091642;28;20024;-58
2023/12/12 04:25:50;;;;;;;3.05;1.55;;;19.40;64.20;;;;;;5092278;28;20402;-57
2023/12/12 04:28:16;;;;;;;2.60;1.58;;;19.40;64.10;;;;;;5092675;28;20107;-56
2023/12/12 04:30:41;;;;;;;2.47;1.50;;;19.40;63.30;;;;;;5083855;28;20103;-57
2023/12/12 04:33:07;;;;;;;4.07;1.50;;;19.40;63.30;;;;;;5088560;28;20065;-57
2023/12/12 04:35:33;;;;;;;2.55;1.30;;;19.40;63.10;;;;;;5085313;28;20030;-55
2023/12/12 04:37:59;;;;;;;2.20;1.50;;;19.40;62.90;;;;;;5087112;28;20021;-53
2023/12/12 04:40:27;;;;;;;2.63;1.30;;;19.40;62.70;;;;;;5091154;28;20099;-55
2023/12/12 04:42:53;;;;;;;3.17;1.40;;;19.40;63.10;;;;;;5092306;28;20024;-58
2023/12/12 04:45:19;;;;;;;1.58;1.10;;;19.40;63.50;;;;;;5091314;28;20020;-55
2023/12/12 04:47:45;;;;;;;2.50;1.40;;;19.40;63.00;;;;;;5092100;28;20046;-57
2023/12/12 04:50:11;;;;;;;4.13;1.58;;;19.40;63.30;;;;;;5091483;28;20376;-58
2023/12/12 04:52:36;;;;;;;3.22;1.60;;;19.40;63.40;;;;;;5090864;28;20012;-58
2023/12/12 04:55:02;;;;;;;3.20;1.63;;;19.40;63.20;;;;;;5091671;28;20387;-57
2023/12/12 04:57:28;;;;;;;2.25;1.35;;;19.40;63.00;;;;;;5092346;28;20024;-54
2023/12/12 04:59:54;;;;;;;3.53;1.50;;;19.40;62.80;;;;;;5090633;28;20506;-56
2023/12/12 05:02:20;;;;;;;2.13;1.40;;;19.40;63.20;;;;;;5085435;28;20032;-58
2023/12/12 05:04:45;;;;;;;3.88;1.70;;;19.40;62.80;;;;;;5085177;28;20028;-57
2023/12/12 05:07:11;;;;;;;2.97;1.63;;;19.40;62.70;;;;;;5083809;28;20024;-58
2023/12/12 05:09:37;;;;;;;4.82;1.80;;;19.40;62.80;;;;;;5087857;28;20374;-55
2023/12/12 05:12:03;;;;;;;5.60;1.90;;;19.40;62.70;;;;;;5091841;28;20024;-56
2023/12/12 05:14:29;;;;;;;3.03;1.63;;;19.40;62.70;;;;;;5088397;28;21414;-58
2023/12/12 05:16:55;;;;;;;3.25;1.67;;;19.40;62.60;;;;;;5087836;28;20510;-58
2023/12/12 05:19:20;;;;;;;4.22;1.80;;;19.50;62.70;;;;;;5090146;28;20045;-55
2023/12/12 05:21:46;;;;;;;4.90;1.83;;;19.50;62.50;;;;;;5091606;28;20066;-58
2023/12/12 05:24:12;;;;;;;4.00;1.60;;;19.50;62.50;;;;;;5089063;28;20024;-58
2023/12/12 05:26:38;;;;;;;3.35;1.60;;;19.50;62.90;;;;;;5090057;28;20101;-57
2023/12/12 05:29:04;;;;;;;3.53;1.90;;;19.50;62.50;;;;;;5090218;28;20055;-59
2023/12/12 05:31:30;;;;;;;3.03;1.80;;;19.50;62.50;;;;;;5090209;28;20393;-58
2023/12/12 05:33:55;;;;;;;4.05;2.08;;;19.50;62.40;;;;;;5078014;28;20115;-58
2023/12/12 05:36:21;;;;;;;4.53;1.92;;;19.50;62.40;;;;;;5090020;28;20111;-59
2023/12/12 05:38:47;;;;;;;5.13;2.00;;;19.50;62.30;;;;;;5080336;28;20099;-58
2023/12/12 05:41:14;;;;;;;3.53;1.98;;;19.50;62.90;;;;;;5090224;28;20364;-58
2023/12/12 05:43:39;;;;;;;4.32;1.95;;;19.50;62.10;;;;;;5087468;28;20718;-58
2023/12/12 05:46:05;;;;;;;4.82;1.80;;;19.50;62.10;;;;;;5090766;28;20052;-58
2023/12/12 05:48:31;;;;;;;4.60;2.40;;;19.50;62.40;;;;;;5090770;28;20145;-57
2023/12/12 05:50:57;;;;;;;3.03;1.85;;;19.50;62.20;;;;;;5083866;28;20041;-57
2023/12/12 05:53:23;;;;;;;3.17;1.92;;;19.50;62.00;;;;;;5091197;28;20111;-55
2023/12/12 05:55:49;;;;;;;3.88;1.92;;;19.50;62.10;;;;;;5087768;28;20108;-57
2023/12/12 05:58:14;;;;;;;4.55;2.03;;;19.40;62.10;;;;;;5090142;28;20023;-58
2023/12/12 06:00:40;;;;;;;3.20;2.00;;;19.40;62.10;;;;;;5085020;28;20016;-57
2023/12/12 06:03:06;;;;;;;4.78;2.10;;;19.50;61.90;;;;;;5087581;28;20027;-58
2023/12/12 06:05:32;;;;;;;4.05;1.90;;;19.50;62.30;;;;;;5082751;28;20032;-56
2023/12/12 06:07:57;;;;;;;4.05;2.03;;;19.50;62.00;;;;;;5076701;28;20040;-54
2023/12/12 06:10:23;;;;;;;5.53;2.13;;;19.50;61.80;;;;;;5090231;28;20028;-58
2023/12/12 06:12:49;;;;;;;5.25;2.20;;;19.50;61.80;;;;;;5072369;28;20032;-58
2023/12/12 06:15:15;;;;;;;3.75;1.92;;;19.50;62.00;;;;;;5090414;28;20107;-56
2023/12/12 06:17:41;;;;;;;6.45;2.38;;;19.40;61.70;;;;;;5090272;28;20050;-56
2023/12/12 06:20:07;;;;;;;7.03;2.30;;;19.50;61.70;;;;;;5082339;28;20024;-56
2023/12/12 06:22:34;;;;;;;4.13;2.30;;;19.50;61.90;;;;;;5090394;28;20032;-57
2023/12/12 06:24:59;;;;;;;5.80;2.35;;;19.50;61.90;;;;;;5089510;28;20433;-58
2023/12/12 06:27:25;;;;;;;5.75;2.45;;;19.50;62.00;;;;;;5086620;28;20043;-54
2023/12/12 06:29:51;;;;;;;4.05;2.00;;;19.50;61.80;;;;;;5087245;28;20505;-58
2023/12/12 06:32:17;;;;;;;4.00;2.20;;;19.50;61.80;;;;;;5075449;28;20460;-56
2023/12/12 06:34:43;;;;;;;3.83;2.30;;;19.50;61.80;;;;;;5088088;28;20471;-57
2023/12/12 06:37:10;;;;;;;4.70;2.40;;;19.50;61.80;;;;;;5080467;28;20020;-53
2023/12/12 06:39:36;;;;;;;4.18;2.20;;;19.50;61.60;;;;;;5089216;28;20024;-54
2023/12/12 06:42:02;;;;;;;6.70;2.17;;;19.50;61.80;;;;;;5088727;28;20016;-59
2023/12/12 06:44:28;;;;;;;4.82;2.00;;;19.50;61.80;;;;;;5089049;28;20028;-57
2023/12/12 06:46:54;;;;;;;4.22;2.30;;;19.50;62.30;;;;;;5084343;28;20016;-58
2023/12/12 06:49:19;;;;;;;4.13;2.13;;;19.50;61.90;;;;;;5083468;28;20081;-56
2023/12/12 06:51:45;;;;;;;6.40;2.70;;;19.50;62.00;;;;;;5090059;28;20048;-58
2023/12/12 06:54:11;;;;;;;4.20;2.65;;;19.40;62.20;;;;;;5090070;28;20039;-57
2023/12/12 06:56:37;;;;;;;6.20;2.55;;;19.40;62.10;;;;;;5083205;28;20418;-58
2023/12/12 06:59:05;;;;;;;5.75;2.50;;;19.40;62.20;;;;;;5080013;28;20030;-56
2023/12/12 07:01:30;;;;;;;4.45;2.45;;;19.50;62.10;;;;;;5089329;28;20023;-56
2023/12/12 07:03:57;;;;;;;5.03;2.42;;;19.40;62.10;;;;;;5089321;28;20145;-57
2023/12/12 07:06:23;;;;;;;7.30;2.80;;;19.40;62.10;;;;;;5081442;28;20392;-58
2023/12/12 07:08:49;;;;;;;7.03;2.63;;;19.40;61.80;;;;;;5087059;28;20028;-56
2023/12/12 07:11:16;;;;;;;6.13;2.85;;;19.40;62.30;;;;;;5084668;28;20509;-57
2023/12/12 07:13:41;;;;;;;4.38;2.50;;;19.40;61.70;;;;;;5085603;28;20040;-57
2023/12/12 07:16:11;;;;;;;5.97;2.63;;;19.40;61.80;;;;;;5084222;28;20109;-55
2023/12/12 07:18:38;;;;;;;5.32;2.47;;;19.40;61.80;;;;;;5088722;28;20549;-58
2023/12/12 07:21:04;;;;;;;4.90;2.78;;;19.40;62.10;;;;;;5091562;28;20024;-59
2023/12/12 07:23:30;;;;;;;5.53;2.60;;;19.40;61.70;;;;;;5094038;28;20024;-57
2023/12/12 07:25:56;;;;;;;3.95;2.40;;;19.40;61.80;;;;;;5084220;28;20029;-56
2023/12/12 07:28:23;;;;;;;5.40;2.67;;;19.40;62.10;;;;;;5088561;28;20035;-58
2023/12/12 07:30:49;;;;;;;6.93;2.85;;;19.50;61.80;;;;;;5089019;28;20021;-57
2023/12/12 07:33:15;;;;;;;5.47;2.78;;;19.50;61.90;;;;;;5077510;28;20020;-58
2023/12/12 07:35:40;;;;;;;6.90;2.80;;;19.50;61.60;;;;;;5088400;28;20026;-57
2023/12/12 07:38:07;;;;;;;5.85;2.63;;;19.50;61.60;;;;;;5087706;28;20047;-58
2023/12/12 07:40:32;;;;;;;5.25;2.40;;;19.50;61.50;;;;;;5091568;28;20031;-56
2023/12/12 07:42:58;;;;;;;4.15;2.60;;;19.50;61.50;;;;;;5082568;28;20036;-56
2023/12/12 07:45:24;;;;;;;6.25;2.58;;;19.50;61.50;;;;;;5093103;28;20024;-57
2023/12/12 07:47:50;;;;;;;6.25;2.70;;;19.50;61.40;;;;;;5090751;28;20032;-58
2023/12/12 07:50:17;;;;;;;4.47;2.33;;;19.50;61.50;;;;;;5084595;28;20028;-57
2023/12/12 07:52:43;;;;;;;7.50;3.00;;;19.50;61.50;;;;;;5093131;28;20517;-55
2023/12/12 07:55:10;;;;;;;7.07;2.75;;;19.50;61.50;;;;;;5086207;28;20031;-55
2023/12/12 07:57:37;;;;;;;7.40;2.60;;;19.50;61.70;;;;;;5082201;28;20399;-56
2023/12/12 08:00:07;;;;;;;12.00;3.45;;;19.50;61.50;;;;;;5091979;28;20039;-58
2023/12/12 08:02:37;;;;;;;6.75;2.97;;;19.50;61.50;;;;;;5093418;28;20028;-57
2023/12/12 08:05:03;;;;;;;10.38;3.45;;;19.40;57.70;;;;;;5093513;28;20036;-58
2023/12/12 08:07:29;;;;;;;15.05;3.15;;;19.20;55.00;;;;;;5093569;28;20487;-56
2023/12/12 08:09:55;;;;;;;12.98;3.58;;;19.00;53.90;;;;;;5093048;28;20028;-58
2023/12/12 08:12:23;;;;;;;9.57;3.00;;;18.90;53.60;;;;;;5088149;28;20027;-58
2023/12/12 08:14:49;;;;;;;9.32;3.38;;;18.90;55.00;;;;;;5084707;28;20027;-59
2023/12/12 08:17:15;;;;;;;16.42;3.05;;;18.90;55.90;;;;;;5090721;28;20380;-58
2023/12/12 08:19:41;;;;;;;15.13;3.80;;;19.00;56.70;;;;;;5087619;28;20036;-57
2023/12/12 08:22:07;;;;;;;13.02;2.95;;;19.20;57.20;;;;;;5090856;28;20460;-58
2023/12/12 08:24:33;;;;;;;7.72;3.05;;;19.20;57.60;;;;;;5092895;28;20056;-58
2023/12/12 08:26:59;;;;;;;8.27;3.25;;;19.20;58.00;;;;;;5091742;28;20028;-58
2023/12/12 08:29:25;;;;;;;14.25;3.10;;;19.30;58.30;;;;;;5082819;28;20029;-55
2023/12/12 08:31:51;;;;;;;8.75;3.00;;;19.30;58.60;;;;;;5088553;28;20062;-54
2023/12/12 08:34:17;;;;;;;13.73;3.55;;;19.30;58.80;;;;;;5082025;28;20391;-53
2023/12/12 08:36:42;;;;;;;11.55;3.25;;;19.30;58.70;;;;;;5086618;28;20049;-58
2023/12/12 08:39:08;;;;;;;12.60;3.22;;;19.40;58.20;;;;;;5091078;28;20032;-55
2023/12/12 08:41:37;;;;;;;9.48;2.85;;;19.30;58.00;;;;;;5086380;28;20028;-55
2023/12/12 08:44:03;;;;;;;6.43;2.70;;;19.30;58.40;;;;;;5056024;28;20579;-56
2023/12/12 08:46:29;;;;;;;10.88;2.97;;;19.30;58.60;;;;;;5094723;28;20102;-57
2023/12/12 08:48:56;;;;;;;14.02;3.25;;;19.40;59.30;;;;;;5081517;28;20033;-57
2023/12/12 08:51:22;;;;;;;13.23;3.40;;;19.50;59.50;;;;;;5093104;28;20483;-58
2023/12/12 08:53:49;;;;;;;28.75;3.30;;;19.50;59.40;;;;;;5081909;28;20032;-57
2023/12/12 08:56:16;;;;;;;21.05;3.67;;;19.50;59.50;;;;;;5093355;28;20384;-59
2023/12/12 08:58:47;;;;;;;19.65;3.03;;;19.50;59.60;;;;;;5093378;28;20443;-57
2023/12/12 09:01:14;;;;;;;12.98;3.13;;;19.50;59.70;;;;;;5088976;28;20089;-56
2023/12/12 09:03:40;;;;;;;18.35;4.07;;;19.50;59.70;;;;;;5084610;28;20047;-55
2023/12/12 09:06:07;;;;;;;13.57;3.30;;;19.60;59.80;;;;;;5090710;28;20027;-57
2023/12/12 09:08:33;;;;;;;14.95;3.30;;;19.60;59.80;;;;;;5094617;28;20462;-57
2023/12/12 09:10:59;;;;;;;12.13;3.45;;;19.60;59.60;;;;;;5089297;28;20098;-54
2023/12/12 09:13:26;;;;;;;15.00;3.28;;;19.60;60.30;;;;;;5095213;28;20248;-56
2023/12/12 09:15:51;;;;;;;15.20;3.10;;;19.70;60.00;;;;;;5089447;28;20036;-58
2023/12/12 09:18:17;;;;;;;19.25;3.95;;;19.80;60.20;;;;;;5094902;28;20024;-59
2023/12/12 09:20:43;;;;;;;10.30;2.80;;;19.80;61.10;;;;;;5089536;28;20069;-56
2023/12/12 09:23:08;;;;;;;18.02;3.50;;;19.80;61.60;;;;;;5091897;28;20051;-55
2023/12/12 09:25:34;;;;;;;13.68;4.15;;;19.90;62.40;;;;;;5089715;28;20121;-57
2023/12/12 09:28:00;;;;;;;8.32;2.78;;;19.90;63.10;;;;;;5076698;28;20024;-57
2023/12/12 09:30:26;;;;;;;15.05;3.53;;;20.00;61.80;;;;;;5089261;28;20031;-54
2023/12/12 09:32:52;;;;;;;18.15;4.00;;;20.10;62.60;;;;;;5093817;28;20042;-56
2023/12/12 09:35:18;;;;;;;18.65;3.50;;;20.10;64.30;;;;;;5089684;28;20038;-58
2023/12/12 09:37:43;;;;;;;23.85;4.22;;;20.20;63.70;;;;;;5090085;28;20102;-60
2023/12/12 09:40:10;;;;;;;13.65;3.78;;;20.20;65.20;;;;;;5080606;28;20030;-59
2023/12/12 09:42:35;;;;;;;16.02;4.15;;;20.30;63.40;;;;;;5093263;28;20059;-59
2023/12/12 09:45:07;;;;;;;19.80;3.70;;;20.30;62.80;;;;;;5089178;28;20099;-58
2023/12/12 09:47:33;;;;;;;15.25;4.07;;;20.30;63.90;;;;;;5093887;28;20117;-59
2023/12/12 09:50:00;;;;;;;13.98;3.63;;;20.30;63.00;;;;;;5087962;28;20143;-59
2023/12/12 09:52:29;;;;;;;12.75;4.13;;;20.30;63.00;;;;;;5092289;28;20031;-59
2023/12/12 09:54:58;;;;;;;17.42;4.28;;;20.30;62.70;;;;;;5088589;28;20027;-60
2023/12/12 09:57:26;;;;;;;11.52;4.07;;;20.30;62.50;;;;;;5092600;28;20530;-59
2023/12/12 09:59:52;;;;;;;15.85;4.18;;;20.30;62.50;;;;;;5087862;28;20028;-60
2023/12/12 10:02:22;;;;;;;11.77;3.95;;;20.30;62.40;;;;;;5088542;28;20491;-58
2023/12/12 10:04:51;;;;;;;14.40;3.80;;;20.20;62.30;;;;;;5088858;28;20097;-59
2023/12/12 10:07:19;;;;;;;19.27;3.83;;;20.20;62.30;;;;;;5090908;28;20514;-59
2023/12/12 10:09:46;;;;;;;13.52;3.83;;;20.20;62.40;;;;;;5088505;28;20027;-60
2023/12/12 10:12:12;;;;;;;15.90;3.83;;;20.20;62.30;;;;;;5091941;28;20069;-60
2023/12/12 10:14:40;;;;;;;12.40;4.10;;;20.20;62.20;;;;;;5089043;28;20095;-60
2023/12/12 10:17:10;;;;;;;9.75;3.40;;;20.20;62.20;;;;;;5090203;28;20483;-60
2023/12/12 10:19:37;;;;;;;10.88;4.13;;;20.10;62.50;;;;;;5088378;28;20033;-60
2023/12/12 10:22:07;;;;;;;12.20;4.43;;;20.10;62.20;;;;;;5090796;28;20509;-58
2023/12/12 10:24:35;;;;;;;15.65;5.05;;;20.10;61.90;;;;;;5088764;28;20419;-60
2023/12/12 10:27:02;;;;;;;10.45;4.07;;;20.10;62.30;;;;;;5090592;28;20401;-61
2023/12/12 10:29:30;;;;;;;11.35;3.83;;;20.10;62.00;;;;;;5088578;28;20020;-61
2023/12/12 10:32:02;;;;;;;11.82;3.60;;;20.10;61.60;;;;;;5090620;28;20032;-60
2023/12/12 10:34:28;;;;;;;12.30;3.83;;;20.10;61.90;;;;;;5088847;28;20074;-59
2023/12/12 10:36:57;;;;;;;9.73;3.85;;;20.10;61.80;;;;;;5089630;28;20040;-60
2023/12/12 10:39:23;;;;;;;12.70;4.18;;;20.10;61.70;;;;;;5088525;28;20448;-60
2023/12/12 10:41:55;;;;;;;9.82;3.22;;;20.20;62.00;;;;;;5089482;28;20055;-60
2023/12/12 10:44:32;;;;;;;12.82;3.90;;;20.20;62.60;;;;;;5074235;28;20033;-58
2023/12/12 10:47:00;;;;;;;20.52;3.83;;;20.20;61.80;;;;;;5087559;28;20028;-56
2023/12/12 10:49:32;;;;;;;11.43;3.63;;;20.20;61.70;;;;;;5087921;28;20044;-58
2023/12/12 10:52:05;;;;;;;14.38;3.53;;;20.20;61.60;;;;;;5090973;28;20687;-59
2023/12/12 10:54:35;;;;;;;19.40;4.22;;;20.20;61.90;;;;;;5091628;28;20423;-58
2023/12/12 10:57:01;;;;;;;;;;;20.10;61.90;;;;;;5093013;28;20027;-58
2023/12/12 10:59:29;;;;;;;18.65;3.33;;;20.10;61.90;;;;;;5092324;28;19908;-58
2023/12/12 11:01:56;;;;;;;21.60;3.97;;;20.20;62.30;;;;;;5092858;28;20027;-59
2023/12/12 11:04:24;;;;;;;22.95;3.78;;;20.20;63.50;;;;;;5098918;28;20035;-57
2023/12/12 11:06:51;;;;;;;14.50;4.03;;;20.20;64.00;;;;;;5092327;28;20031;-58
2023/12/12 11:09:18;;;;;;;11.75;3.67;;;20.20;63.10;;;;;;5099362;28;20031;-58
2023/12/12 11:11:49;;;;;;;17.70;3.90;;;20.20;63.20;;;;;;5092236;28;20073;-58
2023/12/12 11:14:19;;;;;;;16.75;3.88;;;20.20;64.50;;;;;;5099780;28;20031;-58
2023/12/12 11:16:47;;;;;;;16.55;3.70;;;20.20;62.70;;;;;;5092145;28;20020;-55
2023/12/12 11:19:16;;;;;;;15.63;3.58;;;20.20;63.90;;;;;;5093640;28;20380;-57
2023/12/12 11:21:49;;;;;;;19.50;3.70;;;20.20;64.40;;;;;;5089122;28;20036;-56
2023/12/12 11:24:19;;;;;;;13.32;3.28;;;20.20;64.50;;;;;;5089143;28;20032;-55
2023/12/12 11:26:52;;;;;;;21.10;4.05;;;20.20;64.20;;;;;;5083342;28;20107;-55
2023/12/12 11:29:24;;;;;;;9.50;3.50;;;20.20;64.00;;;;;;5093459;28;20031;-53
2023/12/12 11:32:00;;;;;;;13.80;4.05;;;20.10;63.80;;;;;;5089118;28;20100;-55
2023/12/12 11:34:34;;;;;;;25.83;3.63;;;20.10;63.60;;;;;;5088944;28;20055;-56
2023/12/12 11:37:00;;;;;;;13.45;3.97;;;20.20;63.20;;;;;;5089391;28;20032;-56
2023/12/12 11:39:33;;;;;;;13.07;3.47;;;20.20;63.00;;;;;;5089625;28;20035;-57
2023/12/12 11:42:06;;;;;;;10.55;3.95;;;20.20;62.80;;;;;;5087966;28;20032;-55
2023/12/12 11:44:42;;;;;;;14.73;3.80;;;20.20;62.70;;;;;;5086838;28;20139;-57
2023/12/12 11:47:16;;;;;;;10.60;3.33;;;20.10;62.70;;;;;;5088506;28;20035;-57
2023/12/12 11:49:43;;;;;;;10.52;3.25;;;20.20;62.80;;;;;;5087240;28;20505;-58
2023/12/12 11:52:09;;;;;;;12.63;3.30;;;20.20;62.70;;;;;;5089288;28;20028;-56
2023/12/12 11:54:38;;;;;;;10.15;3.35;;;20.20;62.60;;;;;;5088419;28;20030;-57
2023/12/12 11:57:04;;;;;;;17.02;3.67;;;20.20;62.60;;;;;;5088506;28;20082;-56
2023/12/12 11:59:32;;;;;;;9.48;3.20;;;20.20;62.50;;;;;;5091162;28;20528;-57
2023/12/12 12:01:59;;;;;;;10.13;3.28;;;20.20;62.40;;;;;;5089158;28;20032;-54
2023/12/12 12:04:26;;;;;;;8.60;3.05;;;20.20;62.30;;;;;;5091748;28;20021;-55
2023/12/12 12:06:53;;;;;;;10.93;3.20;;;20.20;62.30;;;;;;5089915;28;20030;-54
2023/12/12 12:09:19;;;;;;;11.43;3.20;;;20.20;62.10;;;;;;5095566;28;20035;-56
2023/12/12 12:11:48;;;;;;;13.55;3.88;;;20.20;61.90;;;;;;5073367;28;20042;-53
2023/12/12 12:14:15;;;;;;;13.73;3.73;;;20.30;62.30;;;;;;5091803;28;20098;-56
2023/12/12 12:16:42;;;;;;;14.05;3.17;;;20.30;62.10;;;;;;5089236;28;20020;-60
2023/12/12 12:19:34;;;;;;;9.63;3.50;;;20.30;62.20;;;;;;5094514;28;20028;-57
2023/12/12 12:22:11;;;;;;;12.77;3.45;;;20.30;61.90;;;;;;5056007;28;20024;-57
2023/12/12 12:24:47;;;;;;;10.98;4.05;;;20.30;61.80;;;;;;5091855;28;20063;-58
2023/12/12 12:27:14;;;;;;;11.95;3.60;;;20.40;61.80;;;;;;5082974;28;20032;-55
2023/12/12 12:29:40;;;;;;;10.40;3.50;;;20.40;62.00;;;;;;5094085;28;20024;-57
2023/12/12 12:32:10;;;;;;;14.98;3.20;;;20.30;61.80;;;;;;5090862;28;20027;-55
2023/12/12 12:34:36;;;;;;;9.43;3.53;;;20.30;61.70;;;;;;5093877;28;20039;-57
2023/12/12 12:37:02;;;;;;;8.27;3.95;;;20.30;61.70;;;;;;5090200;28;20032;-56
2023/12/12 12:39:28;;;;;;;10.43;3.33;;;20.30;62.20;;;;;;5093185;28;20032;-56